Time;durP1;ratioP1;P1;durP2;ratioP2;P2;SDS_P1;SDS_P2;PMS_P1;PMS_P2;Temp;Humidity;BMP_temperature;BMP_pressure;BME280_temperature;BME280_humidity;BME280_pressure;Samples;Min_cycle;Max_cycle;Signal;HPM_P1;HPM_P2
2023/12/05 00:01:49;;;;;;;3.72;0.98;;;28.50;99.90;;;;;;5071219;28;20199;-77
2023/12/05 00:04:21;;;;;;;6.95;1.50;;;28.60;99.90;;;;;;5053269;28;20215;-77
2023/12/05 00:06:52;;;;;;;5.50;1.20;;;28.60;99.90;;;;;;5071305;28;20203;-77
2023/12/05 00:09:23;;;;;;;7.45;1.65;;;28.70;99.90;;;;;;5050298;28;20197;-76
2023/12/05 00:11:54;;;;;;;5.13;1.33;;;28.80;99.90;;;;;;5050719;28;20215;-77
2023/12/05 00:14:26;;;;;;;3.45;1.10;;;28.80;99.90;;;;;;5050689;28;20214;-77
2023/12/05 00:16:58;;;;;;;5.32;1.20;;;28.70;99.90;;;;;;5050537;28;20237;-77
2023/12/05 00:19:29;;;;;;;8.02;1.55;;;28.70;99.90;;;;;;5050519;28;20214;-77
2023/12/05 00:22:00;;;;;;;9.00;1.77;;;28.60;99.90;;;;;;5063598;28;20202;-75
2023/12/05 00:24:31;;;;;;;6.63;1.40;;;28.60;99.90;;;;;;5081792;28;20204;-77
2023/12/05 00:27:02;;;;;;;5.88;1.55;;;28.80;99.90;;;;;;5085159;28;20263;-77
2023/12/05 00:29:34;;;;;;;4.18;1.40;;;28.80;99.90;;;;;;5073080;28;20198;-77
2023/12/05 00:32:06;;;;;;;7.10;1.60;;;28.90;99.90;;;;;;5071590;28;20199;-77
2023/12/05 00:34:36;;;;;;;5.40;1.27;;;28.90;99.90;;;;;;5071102;28;20631;-77
2023/12/05 00:37:07;;;;;;;6.50;1.48;;;28.80;99.90;;;;;;5071274;28;20297;-77
2023/12/05 00:39:38;;;;;;;8.20;1.42;;;28.80;99.90;;;;;;5074930;28;20200;-76
2023/12/05 00:42:10;;;;;;;5.70;1.40;;;29.00;99.90;;;;;;5071619;28;20215;-76
2023/12/05 00:44:43;;;;;;;6.70;1.48;;;29.00;99.90;;;;;;5070653;28;20611;-77
2023/12/05 00:47:14;;;;;;;5.70;1.73;;;28.90;99.90;;;;;;5030640;28;20204;-77
2023/12/05 00:49:44;;;;;;;7.68;1.80;;;28.80;99.90;;;;;;5030631;28;20300;-77
2023/12/05 00:52:15;;;;;;;6.25;1.30;;;28.70;99.90;;;;;;5030757;28;20563;-77
2023/12/05 00:54:46;;;;;;;6.90;1.38;;;28.90;99.90;;;;;;5030770;28;20563;-76
2023/12/05 00:57:17;;;;;;;7.13;1.48;;;28.90;99.90;;;;;;5031291;28;20714;-77
2023/12/05 00:59:49;;;;;;;5.78;1.58;;;29.00;99.90;;;;;;5031228;28;20727;-77
2023/12/05 01:02:20;;;;;;;8.63;1.55;;;29.20;99.90;;;;;;5030388;28;20248;-77
2023/12/05 01:04:51;;;;;;;4.47;1.33;;;29.10;99.90;;;;;;5030498;28;20196;-77
2023/12/05 01:07:22;;;;;;;5.65;1.60;;;29.20;99.90;;;;;;5030330;28;20205;-77
2023/12/05 01:09:53;;;;;;;8.77;1.70;;;29.40;99.90;;;;;;5029976;28;20204;-77
2023/12/05 01:12:24;;;;;;;6.28;1.30;;;29.30;99.90;;;;;;5030138;28;20590;-77
2023/12/05 01:14:57;;;;;;;6.05;1.45;;;29.10;99.90;;;;;;5030331;28;20193;-77
2023/12/05 01:17:28;;;;;;;7.85;1.70;;;29.10;99.90;;;;;;5010431;28;20632;-76
2023/12/05 01:20:00;;;;;;;6.55;1.42;;;29.30;99.90;;;;;;5016693;28;20205;-77
2023/12/05 01:22:30;;;;;;;6.70;1.70;;;29.10;99.90;;;;;;5033972;28;20203;-77
2023/12/05 01:25:01;;;;;;;6.55;1.77;;;29.20;99.90;;;;;;5027640;28;20201;-76
2023/12/05 01:27:33;;;;;;;7.47;1.63;;;29.30;99.90;;;;;;5014611;28;20555;-76
2023/12/05 01:30:06;;;;;;;14.25;1.70;;;29.30;99.90;;;;;;5029339;28;20278;-76
2023/12/05 01:32:37;;;;;;;9.32;1.67;;;29.10;99.90;;;;;;5035025;28;20201;-76
2023/12/05 01:35:08;;;;;;;7.18;1.40;;;29.00;99.90;;;;;;5034953;28;20289;-75
2023/12/05 01:37:39;;;;;;;4.60;1.40;;;28.90;99.90;;;;;;5037830;28;20229;-77
2023/12/05 01:40:11;;;;;;;5.47;1.33;;;29.10;99.90;;;;;;5035975;28;20205;-76
2023/12/05 01:42:42;;;;;;;3.50;1.38;;;29.10;99.90;;;;;;5034171;28;20204;-77
2023/12/05 01:45:15;;;;;;;7.13;1.45;;;29.20;99.90;;;;;;5041781;28;20234;-76
2023/12/05 01:47:46;;;;;;;7.93;1.42;;;29.30;99.90;;;;;;5073170;28;20199;-77
2023/12/05 01:50:21;;;;;;;6.68;1.50;;;29.50;99.90;;;;;;5073795;28;20223;-74
2023/12/05 01:52:54;;;;;;;5.63;1.38;;;29.50;99.90;;;;;;5074009;28;20286;-74
2023/12/05 01:55:26;;;;;;;5.05;1.20;;;29.60;99.90;;;;;;5073338;28;20680;-75
2023/12/05 01:57:59;;;;;;;7.97;1.55;;;29.80;99.90;;;;;;5072980;28;20731;-74
2023/12/05 02:00:31;;;;;;;5.15;1.40;;;29.90;99.90;;;;;;5073180;28;20597;-75
2023/12/05 02:03:03;;;;;;;10.50;1.40;;;29.90;99.90;;;;;;5073188;28;20211;-75
2023/12/05 02:05:35;;;;;;;6.22;1.48;;;29.90;99.90;;;;;;5073440;28;20196;-75
2023/12/05 02:08:07;;;;;;;4.07;1.20;;;30.10;99.90;;;;;;5092469;28;20259;-75
2023/12/05 02:10:38;;;;;;;3.28;1.08;;;30.20;99.90;;;;;;5096547;28;20222;-75
2023/12/05 02:13:09;;;;;;;3.38;1.20;;;30.20;99.90;;;;;;5096634;28;20205;-75
2023/12/05 02:15:42;;;;;;;5.72;1.48;;;30.10;99.90;;;;;;5092989;28;20566;-75
2023/12/05 02:18:17;;;;;;;5.93;1.25;;;30.20;99.90;;;;;;5089835;28;20731;-75
2023/12/05 02:20:53;;;;;;;4.40;1.42;;;30.20;99.90;;;;;;5072917;28;20195;-76
2023/12/05 02:23:50;;;;;;;5.13;1.42;;;30.30;99.90;;;;;;5075085;28;20195;-77
2023/12/05 02:26:30;;;;;;;3.33;1.10;;;30.50;99.90;;;;;;5075761;28;20279;-76
2023/12/05 02:29:03;;;;;;;7.78;1.58;;;30.40;99.90;;;;;;5072765;28;20187;-77
2023/12/05 02:31:34;;;;;;;8.30;1.75;;;30.50;99.90;;;;;;5073022;28;20212;-77
2023/12/05 02:34:05;;;;;;;7.10;1.65;;;30.50;99.90;;;;;;5069471;28;20204;-77
2023/12/05 02:36:45;;;;;;;9.80;2.00;;;30.40;99.90;;;;;;5052798;28;20197;-75
2023/12/05 02:39:23;;;;;;;6.55;1.80;;;30.50;99.90;;;;;;5052219;28;20760;-76
2023/12/05 02:41:58;;;;;;;5.82;1.65;;;30.40;99.90;;;;;;5069936;28;20260;-76
2023/12/05 02:44:34;;;;;;;6.97;1.70;;;30.30;99.90;;;;;;5072302;28;20314;-75
2023/12/05 02:47:07;;;;;;;5.82;1.63;;;30.30;99.90;;;;;;5072567;28;20227;-75
2023/12/05 02:49:38;;;;;;;5.65;1.50;;;30.30;99.90;;;;;;5074438;28;20219;-76
2023/12/05 02:52:09;;;;;;;7.75;1.60;;;30.50;99.90;;;;;;5078063;28;20184;-76
2023/12/05 02:54:39;;;;;;;7.85;2.00;;;30.60;99.90;;;;;;5081617;28;20230;-76
2023/12/05 02:57:10;;;;;;;12.45;2.22;;;30.60;99.90;;;;;;5076063;28;20228;-76
2023/12/05 02:59:43;;;;;;;5.28;1.90;;;30.60;99.90;;;;;;5094772;28;20202;-76
2023/12/05 03:02:14;;;;;;;12.20;1.77;;;30.70;99.90;;;;;;5092282;28;20217;-76
2023/12/05 03:04:44;;;;;;;9.27;2.03;;;30.60;99.90;;;;;;5083375;28;20199;-76
2023/12/05 03:07:15;;;;;;;6.57;1.48;;;30.60;99.90;;;;;;5071975;28;20203;-75
2023/12/05 03:09:46;;;;;;;9.65;1.60;;;30.60;99.90;;;;;;5071841;28;20200;-77
2023/12/05 03:12:17;;;;;;;8.27;1.58;;;30.60;99.90;;;;;;5071990;28;20214;-77
2023/12/05 03:14:49;;;;;;;6.70;1.67;;;30.80;99.90;;;;;;5071871;28;20700;-76
2023/12/05 03:17:20;;;;;;;10.55;1.98;;;30.90;99.90;;;;;;5071601;28;20224;-76
2023/12/05 03:19:51;;;;;;;7.65;1.65;;;30.60;99.90;;;;;;5071960;28;20283;-77
2023/12/05 03:22:21;;;;;;;5.93;1.95;;;30.80;99.90;;;;;;5071478;28;20279;-78
2023/12/05 03:24:52;;;;;;;6.93;1.90;;;30.80;99.90;;;;;;5071692;28;20203;-78
2023/12/05 03:27:23;;;;;;;5.03;1.55;;;30.80;99.90;;;;;;5071518;28;20724;-76
2023/12/05 03:29:56;;;;;;;7.18;1.70;;;30.70;99.90;;;;;;5071121;28;20192;-76
2023/12/05 03:32:26;;;;;;;3.78;1.40;;;30.70;99.90;;;;;;5071751;28;20203;-75
2023/12/05 03:34:57;;;;;;;10.85;2.03;;;30.90;99.90;;;;;;5071313;28;20202;-76
2023/12/05 03:37:28;;;;;;;6.70;1.55;;;30.80;99.90;;;;;;5071547;28;20204;-76
2023/12/05 03:39:59;;;;;;;8.77;2.00;;;31.10;99.90;;;;;;5071577;28;20196;-76
2023/12/05 03:42:34;;;;;;;10.48;1.80;;;31.10;99.90;;;;;;5073335;28;20526;-76
2023/12/05 03:45:07;;;;;;;7.38;1.70;;;31.30;99.90;;;;;;5070967;28;20232;-76
2023/12/05 03:47:38;;;;;;;7.63;2.13;;;31.10;99.90;;;;;;5071676;28;20200;-75
2023/12/05 03:50:09;;;;;;;7.20;1.67;;;31.10;99.90;;;;;;5071836;28;20291;-76
2023/12/05 03:52:40;;;;;;;4.30;1.45;;;31.20;99.90;;;;;;5071117;28;20200;-76
2023/12/05 03:55:11;;;;;;;8.40;1.75;;;31.30;99.90;;;;;;5071088;28;20196;-76
2023/12/05 03:57:42;;;;;;;7.07;1.52;;;31.40;99.90;;;;;;5070770;28;20233;-76
2023/12/05 04:00:16;;;;;;;3.97;1.42;;;31.50;99.90;;;;;;5070599;28;20283;-76
2023/12/05 04:02:46;;;;;;;9.95;1.55;;;31.30;99.90;;;;;;5071388;28;20200;-76
2023/12/05 04:05:17;;;;;;;6.45;1.45;;;31.10;99.90;;;;;;5061231;28;20208;-75
2023/12/05 04:07:49;;;;;;;5.70;1.73;;;31.00;99.90;;;;;;5075422;28;20211;-75
2023/12/05 04:10:19;;;;;;;7.20;1.70;;;30.80;99.90;;;;;;5072155;28;20245;-76
2023/12/05 04:12:50;;;;;;;10.98;1.80;;;30.60;99.90;;;;;;5070777;28;20200;-76
2023/12/05 04:15:23;;;;;;;6.80;1.45;;;30.50;99.90;;;;;;5070365;28;20206;-76
2023/12/05 04:17:54;;;;;;;7.45;1.58;;;30.60;99.90;;;;;;5070336;28;20228;-76
2023/12/05 04:20:25;;;;;;;8.07;1.50;;;30.70;99.90;;;;;;5070269;28;20598;-76
2023/12/05 04:22:56;;;;;;;8.65;1.63;;;30.80;99.90;;;;;;5069995;28;20192;-76
2023/12/05 04:25:27;;;;;;;8.05;1.58;;;30.90;99.90;;;;;;5070296;28;20206;-76
2023/12/05 04:27:58;;;;;;;7.25;1.30;;;31.10;99.90;;;;;;5070249;28;20212;-77
2023/12/05 04:30:30;;;;;;;4.82;1.30;;;31.10;99.90;;;;;;5069867;28;20206;-77
2023/12/05 04:33:01;;;;;;;8.52;1.63;;;31.20;99.90;;;;;;5070108;28;20200;-77
2023/12/05 04:35:32;;;;;;;7.63;1.63;;;31.10;99.90;;;;;;5070384;28;20597;-77
2023/12/05 04:38:03;;;;;;;6.53;1.55;;;31.20;99.90;;;;;;5070193;28;20575;-77
2023/12/05 04:40:33;;;;;;;5.70;1.60;;;31.30;99.90;;;;;;5070563;28;20235;-77
2023/12/05 04:43:04;;;;;;;8.35;1.30;;;31.30;99.90;;;;;;5070088;28;20196;-77
2023/12/05 04:45:37;;;;;;;4.53;1.40;;;31.30;99.90;;;;;;5069688;28;20231;-76
2023/12/05 04:48:08;;;;;;;6.88;1.45;;;31.30;99.90;;;;;;5070714;28;20617;-76
2023/12/05 04:50:39;;;;;;;6.35;1.42;;;31.50;99.90;;;;;;5070459;28;20203;-77
2023/12/05 04:53:09;;;;;;;5.60;1.42;;;31.70;99.90;;;;;;5070574;28;20210;-76
2023/12/05 04:55:41;;;;;;;5.00;1.40;;;31.50;99.90;;;;;;5071388;28;20211;-77
2023/12/05 04:58:12;;;;;;;7.55;1.40;;;31.60;99.90;;;;;;5074342;28;20223;-77
2023/12/05 05:00:46;;;;;;;6.53;1.33;;;31.70;99.90;;;;;;5074669;28;20639;-77
2023/12/05 05:03:17;;;;;;;6.45;1.40;;;31.80;99.90;;;;;;5077003;28;20203;-76
2023/12/05 05:05:48;;;;;;;5.70;1.52;;;31.80;99.90;;;;;;5074375;28;20203;-77
2023/12/05 05:08:19;;;;;;;6.53;1.30;;;31.90;99.90;;;;;;5073902;28;20301;-77
2023/12/05 05:10:49;;;;;;;7.25;1.55;;;31.90;99.90;;;;;;5074021;28;20232;-77
2023/12/05 05:13:20;;;;;;;2.50;1.05;;;32.10;99.90;;;;;;5074254;28;20688;-77
2023/12/05 05:15:53;;;;;;;2.90;0.98;;;32.20;99.90;;;;;;5076051;28;20321;-77
2023/12/05 05:18:23;;;;;;;8.95;1.50;;;32.30;99.90;;;;;;5084418;28;20230;-77
2023/12/05 05:20:54;;;;;;;5.72;1.42;;;32.30;99.90;;;;;;5093725;28;20283;-75
2023/12/05 05:23:25;;;;;;;5.03;1.60;;;32.40;99.90;;;;;;5091130;28;20291;-77
2023/12/05 05:25:56;;;;;;;8.35;1.60;;;32.60;99.90;;;;;;5078353;28;20260;-77
2023/12/05 05:28:27;;;;;;;4.40;1.35;;;32.70;99.90;;;;;;5075105;28;20698;-77
2023/12/05 05:30:59;;;;;;;6.13;1.60;;;32.90;99.90;;;;;;5083702;28;20219;-76
2023/12/05 05:33:30;;;;;;;6.55;1.60;;;32.90;99.90;;;;;;5095260;28;20276;-77
2023/12/05 05:36:02;;;;;;;6.07;1.60;;;33.00;99.90;;;;;;5095431;28;20199;-77
2023/12/05 05:38:32;;;;;;;7.75;1.60;;;33.20;99.90;;;;;;5095215;28;20250;-77
2023/12/05 05:41:08;;;;;;;9.75;2.10;;;33.40;99.90;;;;;;5094877;28;20218;-77
2023/12/05 05:43:42;;;;;;;6.00;1.60;;;33.30;99.60;;;;;;5094601;28;20195;-77
2023/12/05 05:46:15;;;;;;;3.95;1.45;;;33.20;99.40;;;;;;5094030;28;20676;-77
2023/12/05 05:48:46;;;;;;;5.75;1.67;;;33.50;98.60;;;;;;5093483;28;20215;-77
2023/12/05 05:51:17;;;;;;;6.45;1.70;;;33.30;99.00;;;;;;5094353;28;20195;-77
2023/12/05 05:53:48;;;;;;;9.15;2.40;;;33.30;98.90;;;;;;5093984;28;20281;-77
2023/12/05 05:56:21;;;;;;;5.60;1.50;;;33.30;98.60;;;;;;5093924;28;20205;-77
2023/12/05 05:58:52;;;;;;;6.13;1.45;;;33.80;96.80;;;;;;5093499;28;20223;-76
2023/12/05 06:01:25;;;;;;;4.03;1.40;;;33.80;95.80;;;;;;5093579;28;20222;-76
2023/12/05 06:03:56;;;;;;;4.13;1.65;;;33.70;95.60;;;;;;5093231;28;20573;-77
2023/12/05 06:06:27;;;;;;;6.75;1.50;;;33.70;95.70;;;;;;5053022;28;20205;-77
2023/12/05 06:08:58;;;;;;;3.33;1.52;;;33.50;95.20;;;;;;5053544;28;20217;-78
2023/12/05 06:11:29;;;;;;;7.65;1.52;;;33.30;95.70;;;;;;5053944;28;20196;-78
2023/12/05 06:14:00;;;;;;;6.25;1.70;;;33.30;95.40;;;;;;5054376;28;20188;-78
2023/12/05 06:16:32;;;;;;;7.40;1.85;;;33.10;95.50;;;;;;5066747;28;20206;-77
2023/12/05 06:19:03;;;;;;;7.07;1.67;;;32.90;96.10;;;;;;5073739;28;20223;-77
2023/12/05 06:21:35;;;;;;;3.83;1.38;;;32.90;96.30;;;;;;5079282;28;20200;-77
2023/12/05 06:24:08;;;;;;;6.25;1.60;;;32.60;97.00;;;;;;5093730;28;20287;-78
2023/12/05 06:26:38;;;;;;;6.43;1.70;;;32.70;96.20;;;;;;5093860;28;20199;-77
2023/12/05 06:29:09;;;;;;;5.85;1.83;;;32.60;96.90;;;;;;5093856;28;20713;-78
2023/12/05 06:31:45;;;;;;;7.93;1.52;;;32.60;96.80;;;;;;5099086;28;20187;-78
2023/12/05 06:34:16;;;;;;;6.35;1.67;;;32.50;97.00;;;;;;5116389;28;20242;-78
2023/12/05 06:36:46;;;;;;;8.38;2.10;;;32.50;97.10;;;;;;5116471;28;20218;-77
2023/12/05 06:39:17;;;;;;;6.72;2.13;;;32.20;97.70;;;;;;5106483;28;20227;-78
2023/12/05 06:41:48;;;;;;;7.70;2.30;;;32.60;97.60;;;;;;5092695;28;20272;-78
2023/12/05 06:44:19;;;;;;;6.97;2.10;;;33.00;96.70;;;;;;5093324;28;20205;-78
2023/12/05 06:46:51;;;;;;;6.35;2.08;;;33.60;95.40;;;;;;5094300;28;20237;-77
2023/12/05 06:49:23;;;;;;;5.35;2.10;;;33.80;94.30;;;;;;5099862;28;20263;-78
2023/12/05 06:51:57;;;;;;;7.13;1.92;;;34.10;93.60;;;;;;5093271;28;20235;-77
2023/12/05 06:54:27;;;;;;;7.63;1.90;;;34.10;93.60;;;;;;5093371;28;20202;-78
2023/12/05 06:56:58;;;;;;;8.10;2.15;;;34.30;93.60;;;;;;5068583;28;20630;-77
2023/12/05 06:59:31;;;;;;;7.70;1.92;;;34.50;92.80;;;;;;5052448;28;20316;-78
2023/12/05 07:02:04;;;;;;;6.65;2.00;;;34.50;92.70;;;;;;5052646;28;20236;-79
2023/12/05 07:04:35;;;;;;;5.55;1.80;;;34.40;92.00;;;;;;5052340;28;20678;-78
2023/12/05 07:07:19;;;;;;;7.95;2.03;;;34.60;91.50;;;;;;5053341;28;20227;-77
2023/12/05 07:10:28;;;;;;;5.35;1.92;;;34.80;90.80;;;;;;5051934;28;20275;-78
2023/12/05 07:12:59;;;;;;;6.22;1.95;;;34.70;90.70;;;;;;5051416;28;20290;-78
2023/12/05 07:15:30;;;;;;;6.60;2.25;;;34.60;90.50;;;;;;5071639;28;20195;-79
2023/12/05 07:18:03;;;;;;;5.03;1.73;;;34.70;90.10;;;;;;5071260;28;20579;-79
2023/12/05 07:20:34;;;;;;;8.32;1.92;;;34.40;90.00;;;;;;5071874;28;20740;-79
2023/12/05 07:23:05;;;;;;;7.18;1.60;;;34.40;89.90;;;;;;5071849;28;20287;-79
2023/12/05 07:25:35;;;;;;;6.18;1.60;;;34.70;88.30;;;;;;5073027;28;20195;-80
2023/12/05 07:28:06;;;;;;;4.55;1.40;;;34.80;88.20;;;;;;5073252;28;20563;-77
2023/12/05 07:30:37;;;;;;;5.90;1.83;;;34.70;87.60;;;;;;5087364;28;20242;-78
2023/12/05 07:33:10;;;;;;;7.15;2.25;;;34.40;87.60;;;;;;5092307;28;20195;-78
2023/12/05 07:35:41;;;;;;;6.10;1.60;;;34.30;89.00;;;;;;5092272;28;20666;-78
2023/12/05 07:38:12;;;;;;;6.90;1.85;;;34.40;87.90;;;;;;5092414;28;20191;-77
2023/12/05 07:40:43;;;;;;;8.40;2.20;;;34.40;87.60;;;;;;5074954;28;20304;-78
2023/12/05 07:43:17;;;;;;;3.97;1.63;;;34.20;87.80;;;;;;5093750;28;20278;-78
2023/12/05 07:45:47;;;;;;;5.30;1.70;;;34.40;87.90;;;;;;5110598;28;20251;-78
2023/12/05 07:48:20;;;;;;;4.03;1.67;;;34.40;86.90;;;;;;5113776;28;20212;-79
2023/12/05 07:50:51;;;;;;;6.45;1.90;;;34.40;86.70;;;;;;5102536;28;20210;-78
2023/12/05 07:53:22;;;;;;;7.03;1.73;;;34.20;87.70;;;;;;5090063;28;20286;-78
2023/12/05 07:55:53;;;;;;;5.25;2.00;;;33.50;90.00;;;;;;5075496;28;20257;-78
2023/12/05 07:58:24;;;;;;;5.45;1.95;;;32.90;91.50;;;;;;5070631;28;20304;-78
2023/12/05 08:00:55;;;;;;;5.03;1.77;;;32.60;92.30;;;;;;5071357;28;20508;-79
2023/12/05 08:03:29;;;;;;;5.28;1.75;;;32.30;92.80;;;;;;5071848;28;20529;-78
2023/12/05 08:06:01;;;;;;;5.95;1.80;;;32.20;93.10;;;;;;5071192;28;20314;-78
2023/12/05 08:08:34;;;;;;;6.30;2.03;;;31.60;94.40;;;;;;5071154;28;20642;-77
2023/12/05 08:11:05;;;;;;;7.60;1.92;;;31.20;95.70;;;;;;5070925;28;20207;-76
2023/12/05 08:13:36;;;;;;;8.68;2.10;;;30.80;97.00;;;;;;5071095;28;20223;-77
2023/12/05 08:16:07;;;;;;;7.90;2.30;;;30.60;98.10;;;;;;5071168;28;20569;-77
2023/12/05 08:18:40;;;;;;;7.97;2.30;;;30.30;99.20;;;;;;5070703;28;20255;-77
2023/12/05 08:21:12;;;;;;;7.72;2.65;;;30.20;99.90;;;;;;5075673;28;20647;-76
2023/12/05 08:23:43;;;;;;;6.82;2.00;;;29.80;99.90;;;;;;5071170;28;20572;-77
2023/12/05 08:26:13;;;;;;;9.93;2.42;;;29.60;99.90;;;;;;5070940;28;20213;-77
2023/12/05 08:28:44;;;;;;;7.53;2.13;;;29.40;99.90;;;;;;5070140;28;20206;-77
2023/12/05 08:31:15;;;;;;;8.25;2.20;;;29.20;99.90;;;;;;5070463;28;20389;-76
2023/12/05 08:33:48;;;;;;;11.75;2.88;;;29.10;99.90;;;;;;5071006;28;20195;-78
2023/12/05 08:36:19;;;;;;;5.07;2.50;;;29.00;99.90;;;;;;5070748;28;20649;-79
2023/12/05 08:38:50;;;;;;;9.27;2.70;;;29.00;99.90;;;;;;5071092;28;20593;-79
2023/12/05 08:41:24;;;;;;;6.22;3.25;;;29.00;99.90;;;;;;5071327;28;20257;-79
2023/12/05 08:43:55;;;;;;;8.57;3.45;;;29.00;99.90;;;;;;5070391;28;20205;-79
2023/12/05 08:46:26;;;;;;;7.57;2.40;;;28.90;99.90;;;;;;5070390;28;20661;-79
2023/12/05 08:48:58;;;;;;;8.02;2.67;;;28.80;99.90;;;;;;5069769;28;20705;-79
2023/12/05 08:51:32;;;;;;;10.00;2.22;;;28.70;99.90;;;;;;5069914;28;20279;-77
2023/12/05 08:54:02;;;;;;;5.72;1.95;;;28.60;99.90;;;;;;5070507;28;20303;-78
2023/12/05 08:56:36;;;;;;;8.57;1.98;;;28.50;99.90;;;;;;5069662;28;20696;-76
2023/12/05 08:59:06;;;;;;;5.32;1.95;;;28.50;99.90;;;;;;5069899;28;20590;-77
2023/12/05 09:01:37;;;;;;;6.75;1.98;;;28.40;99.90;;;;;;5070117;28;20199;-76
2023/12/05 09:04:11;;;;;;;5.55;2.05;;;28.30;99.90;;;;;;5070394;28;20637;-77
2023/12/05 09:06:42;;;;;;;6.38;2.10;;;28.30;99.90;;;;;;5061873;28;20324;-78
2023/12/05 09:09:13;;;;;;;6.07;2.13;;;28.20;99.90;;;;;;5054573;28;20204;-78
2023/12/05 09:11:44;;;;;;;7.88;2.28;;;28.20;99.90;;;;;;5062992;28;20199;-78
2023/12/05 09:14:15;;;;;;;7.20;2.40;;;28.20;99.90;;;;;;5079308;28;20253;-78
2023/12/05 09:16:46;;;;;;;7.55;2.17;;;28.10;99.90;;;;;;5069804;28;20192;-79
2023/12/05 09:19:18;;;;;;;8.48;2.40;;;28.20;99.90;;;;;;5069332;28;20728;-79
2023/12/05 09:21:53;;;;;;;7.55;2.20;;;28.10;99.90;;;;;;5069739;28;20192;-78
2023/12/05 09:24:23;;;;;;;8.77;2.50;;;28.10;99.90;;;;;;5069776;28;20208;-79
2023/12/05 09:26:54;;;;;;;7.45;2.13;;;27.90;99.90;;;;;;5069228;28;20195;-78
2023/12/05 09:29:25;;;;;;;9.23;2.00;;;27.80;99.90;;;;;;5070107;28;20237;-78
2023/12/05 09:31:56;;;;;;;10.45;2.20;;;27.80;99.90;;;;;;5069726;28;20231;-78
2023/12/05 09:34:29;;;;;;;10.10;2.30;;;27.70;99.90;;;;;;5069562;28;20283;-79
2023/12/05 09:37:00;;;;;;;7.45;2.03;;;27.70;99.90;;;;;;5069599;28;20203;-78
2023/12/05 09:39:33;;;;;;;6.57;1.83;;;27.70;99.90;;;;;;5081511;28;20256;-78
2023/12/05 09:42:10;;;;;;;7.72;2.10;;;27.70;99.90;;;;;;5075073;28;20299;-77
2023/12/05 09:44:46;;;;;;;8.23;2.20;;;27.70;99.90;;;;;;5074012;28;20207;-78
2023/12/05 09:47:21;;;;;;;8.23;2.20;;;27.70;99.90;;;;;;5093263;28;20211;-77
2023/12/05 09:49:55;;;;;;;9.02;2.25;;;27.70;99.90;;;;;;5090116;28;20205;-78
2023/12/05 09:52:26;;;;;;;8.70;2.45;;;27.80;99.90;;;;;;5073646;28;20195;-78
2023/12/05 09:54:57;;;;;;;10.15;2.60;;;27.70;99.90;;;;;;5073513;28;20202;-78
2023/12/05 09:57:29;;;;;;;7.55;2.25;;;27.70;99.90;;;;;;5072491;28;20684;-79
2023/12/05 09:59:59;;;;;;;10.75;2.50;;;27.70;99.90;;;;;;5053560;28;20781;-79
2023/12/05 10:02:31;;;;;;;10.55;2.65;;;27.70;99.90;;;;;;5059272;28;20754;-78
2023/12/05 10:05:06;;;;;;;11.75;2.78;;;27.60;99.90;;;;;;5068972;28;20226;-78
2023/12/05 10:07:37;;;;;;;7.80;2.70;;;27.60;99.90;;;;;;5053535;28;20201;-78
2023/12/05 10:10:09;;;;;;;8.27;2.83;;;27.60;99.90;;;;;;5057850;28;20235;-78
2023/12/05 10:12:40;;;;;;;7.60;2.80;;;27.60;99.90;;;;;;5080635;28;20251;-77
2023/12/05 10:15:12;;;;;;;6.82;2.63;;;27.60;99.90;;;;;;5093232;28;20260;-77
2023/12/05 10:17:43;;;;;;;7.40;2.78;;;27.50;99.90;;;;;;5093316;28;20181;-77
2023/12/05 10:20:16;;;;;;;9.15;2.90;;;27.50;99.90;;;;;;5083957;28;20310;-78
2023/12/05 10:22:47;;;;;;;4.97;2.67;;;27.50;99.90;;;;;;5060735;28;20671;-78
2023/12/05 10:25:18;;;;;;;9.75;3.08;;;27.50;99.90;;;;;;5053189;28;20197;-77
2023/12/05 10:28:05;;;;;;;7.38;2.95;;;27.50;99.90;;;;;;5052642;28;20228;-77
2023/12/05 10:30:37;;;;;;;8.40;3.13;;;27.50;99.90;;;;;;5053296;28;20246;-77
2023/12/05 10:33:15;;;;;;;8.80;3.35;;;27.40;99.90;;;;;;5053432;28;20594;-77
2023/12/05 10:35:49;;;;;;;8.15;3.33;;;27.40;99.90;;;;;;5052408;28;20215;-77
2023/12/05 10:38:20;;;;;;;9.27;3.13;;;27.40;99.90;;;;;;5092058;28;20290;-78
2023/12/05 10:40:55;;;;;;;15.07;3.60;;;27.40;99.90;;;;;;5092673;28;20751;-77
2023/12/05 10:43:27;;;;;;;9.43;3.08;;;27.40;99.90;;;;;;5063791;28;20670;-78
2023/12/05 10:46:03;;;;;;;8.30;3.20;;;27.30;99.90;;;;;;5052295;28;20315;-78
2023/12/05 10:48:36;;;;;;;12.30;3.40;;;27.30;99.90;;;;;;5052692;28;20204;-77
2023/12/05 10:51:09;;;;;;;14.13;3.83;;;27.20;99.90;;;;;;5065945;28;20228;-77
2023/12/05 10:53:41;;;;;;;10.40;3.55;;;27.20;99.90;;;;;;5073257;28;20203;-77
2023/12/05 10:56:16;;;;;;;13.43;4.28;;;27.20;99.90;;;;;;5072618;28;20287;-77
2023/12/05 10:58:47;;;;;;;8.60;3.28;;;27.20;99.90;;;;;;5072024;28;20633;-78
2023/12/05 11:01:19;;;;;;;6.70;3.47;;;27.20;99.90;;;;;;5076466;28;20694;-78
2023/12/05 11:03:51;;;;;;;11.25;3.42;;;27.20;99.90;;;;;;5065538;28;20221;-78
2023/12/05 11:06:29;;;;;;;9.68;3.50;;;27.20;99.90;;;;;;5053055;28;20197;-77
2023/12/05 11:09:00;;;;;;;10.98;3.55;;;27.20;99.90;;;;;;5066133;28;20180;-78
2023/12/05 11:11:35;;;;;;;9.88;3.90;;;27.20;99.90;;;;;;5057188;28;20738;-77
2023/12/05 11:14:07;;;;;;;9.68;3.50;;;27.20;99.90;;;;;;5052113;28;20196;-78
2023/12/05 11:16:46;;;;;;;9.60;3.47;;;27.20;99.90;;;;;;5052130;28;20546;-78
2023/12/05 11:19:27;;;;;;;11.57;4.00;;;27.20;99.90;;;;;;5070531;28;20196;-78
2023/12/05 11:22:10;;;;;;;10.25;4.10;;;27.20;99.90;;;;;;5071937;28;20231;-78
2023/12/05 11:25:03;;;;;;;7.47;3.40;;;27.20;99.90;;;;;;5072239;28;20227;-78
2023/12/05 11:27:45;;;;;;;10.80;3.55;;;27.20;99.90;;;;;;5080179;28;20290;-77
2023/12/05 11:30:39;;;;;;;10.50;3.65;;;27.20;99.90;;;;;;5080594;28;20249;-78
2023/12/05 11:33:23;;;;;;;11.13;3.58;;;27.30;99.90;;;;;;5085407;28;20195;-77
2023/12/05 11:36:03;;;;;;;10.05;3.50;;;27.30;99.90;;;;;;5073398;28;20275;-78
2023/12/05 11:38:36;;;;;;;12.93;3.67;;;27.20;99.90;;;;;;5072257;28;20238;-78
2023/12/05 11:41:18;;;;;;;9.85;3.45;;;27.20;99.90;;;;;;5071258;28;20636;-78
2023/12/05 11:44:21;;;;;;;9.63;3.58;;;27.20;99.90;;;;;;5071530;28;20200;-78
2023/12/05 11:46:54;;;;;;;10.82;3.85;;;27.20;99.90;;;;;;5051106;28;20315;-78
2023/12/05 11:49:36;;;;;;;9.63;3.63;;;27.20;99.90;;;;;;5051130;28;20715;-78
2023/12/05 11:52:12;;;;;;;11.10;3.45;;;27.10;99.90;;;;;;5071049;28;20290;-78
2023/12/05 11:54:50;;;;;;;11.82;3.63;;;27.10;99.90;;;;;;5071256;28;20191;-78
2023/12/05 11:57:21;;;;;;;10.32;3.33;;;27.10;99.90;;;;;;5070830;28;20279;-78
2023/12/05 11:59:55;;;;;;;10.02;3.22;;;27.10;99.90;;;;;;5070885;28;20220;-78
2023/12/05 12:02:44;;;;;;;6.97;3.25;;;27.10;99.90;;;;;;5083489;28;20282;-78
2023/12/05 12:05:16;;;;;;;6.05;2.75;;;27.10;99.90;;;;;;5090443;28;20221;-78
2023/12/05 12:07:52;;;;;;;12.68;3.70;;;27.10;99.90;;;;;;5072310;28;20207;-78
2023/12/05 12:10:26;;;;;;;6.80;3.42;;;27.10;99.90;;;;;;5057627;28;20200;-78
2023/12/05 12:12:57;;;;;;;8.13;3.50;;;27.10;99.90;;;;;;5050737;28;20203;-78
2023/12/05 12:15:28;;;;;;;12.90;3.67;;;27.10;99.90;;;;;;5051200;28;20201;-78
2023/12/05 12:18:00;;;;;;;7.25;3.30;;;27.00;99.90;;;;;;5060465;28;20192;-78
2023/12/05 12:20:30;;;;;;;6.75;3.03;;;27.10;99.90;;;;;;5091449;28;20220;-77
2023/12/05 12:23:00;;;;;;;8.52;3.33;;;27.00;99.90;;;;;;5099531;28;20201;-78
2023/12/05 12:25:33;;;;;;;6.68;3.05;;;27.00;99.90;;;;;;5092877;28;20205;-78
2023/12/05 12:28:04;;;;;;;8.80;3.15;;;27.00;99.90;;;;;;5090979;28;20282;-78
2023/12/05 12:30:38;;;;;;;7.55;2.92;;;27.00;99.90;;;;;;5090800;28;20289;-78
2023/12/05 12:33:13;;;;;;;6.88;3.00;;;27.00;99.90;;;;;;5091164;28;20230;-78
2023/12/05 12:35:44;;;;;;;6.57;2.50;;;27.00;99.90;;;;;;5089780;28;20213;-78
2023/12/05 12:38:17;;;;;;;9.05;3.00;;;27.00;99.90;;;;;;5090691;28;20231;-78
2023/12/05 12:40:50;;;;;;;9.73;2.97;;;27.00;99.90;;;;;;5094647;28;20195;-79
2023/12/05 12:43:22;;;;;;;8.60;3.15;;;27.00;99.90;;;;;;5103384;28;20202;-78
2023/12/05 12:45:53;;;;;;;7.45;3.10;;;27.00;99.90;;;;;;5104498;28;20230;-78
2023/12/05 12:48:24;;;;;;;9.43;3.35;;;27.00;99.90;;;;;;5097065;28;20195;-78
2023/12/05 12:50:56;;;;;;;12.02;2.97;;;27.00;99.90;;;;;;5077843;28;20192;-78
2023/12/05 12:53:27;;;;;;;7.75;3.10;;;27.00;99.90;;;;;;5084839;28;20302;-78
2023/12/05 12:56:00;;;;;;;8.57;2.78;;;27.00;99.90;;;;;;5080242;28;20200;-78
2023/12/05 12:58:39;;;;;;;9.20;2.97;;;26.90;99.90;;;;;;5070316;28;20278;-77
2023/12/05 13:01:11;;;;;;;10.30;3.35;;;26.90;99.90;;;;;;5070381;28;20584;-77
2023/12/05 13:03:46;;;;;;;8.52;3.15;;;26.90;99.90;;;;;;5070299;28;20677;-78
2023/12/05 13:06:17;;;;;;;9.07;3.10;;;26.90;99.90;;;;;;5070021;28;20203;-78
2023/12/05 13:08:48;;;;;;;8.50;3.28;;;26.90;99.90;;;;;;5069924;28;20227;-78
2023/12/05 13:11:20;;;;;;;7.78;3.20;;;26.90;99.90;;;;;;5070320;28;20222;-78
2023/12/05 13:13:53;;;;;;;8.52;2.95;;;26.90;99.90;;;;;;5070120;28;20286;-78